This is the latest recevied weather packets stored in our database for station/object IU2EVW-13. If no packets are shown the sender has not sent any weather packets the latest 10 day(s).
| Time | Temp. | Humidity | Pressure | Rain* | Wind** | Luminosity | Snow |
|---|---|---|---|---|---|---|---|
| 1777667924 | 11.67° C | 49% | 1028.3 hPa | - | - | - | - |
| 1777666720 | 12.22° C | 48% | 1028.1 hPa | - | - | - | - |
| 1777665519 | 12.22° C | 47% | 1027.9 hPa | - | - | - | - |
| 1777664318 | 12.78° C | 45% | 1027.5 hPa | - | - | - | - |
| 1777663116 | 13.33° C | 43% | 1027.1 hPa | - | - | - | - |
| 1777661915 | 13.33° C | 42% | 1026.9 hPa | - | - | - | - |
| 1777660713 | 13.89° C | 40% | 1026.4 hPa | - | - | - | - |
| 1777659512 | 14.44° C | 38% | 1026.2 hPa | - | - | - | - |
| 1777658311 | 16.11° C | 35% | 1025.9 hPa | - | - | - | - |
| 1777657109 | 18.33° C | 31% | 1025.5 hPa | - | - | - | - |
| 1777655908 | 20° C | 25% | 1025.3 hPa | - | - | - | - |
| 1777654707 | 21.67° C | 23% | 1025.2 hPa | - | - | - | - |
| 1777653506 | 22.22° C | 23% | 1025.3 hPa | - | - | - | - |
| 1777652304 | 22.78° C | 23% | 1025.3 hPa | - | - | - | - |
| 1777651103 | 22.78° C | 23% | 1025.5 hPa | - | - | - | - |
| 1777649902 | 22.22° C | 24% | 1025.7 hPa | - | - | - | - |
| 1777648700 | 21.67° C | 24% | 1025.9 hPa | - | - | - | - |
| 1777647499 | 22.78° C | 22% | 1026 hPa | - | - | - | - |
| 1777646297 | 23.33° C | 23% | 1026.2 hPa | - | - | - | - |
| 1777645096 | 20.56° C | 28% | 1026.5 hPa | - | - | - | - |
| 1777643894 | 20.56° C | 30% | 1026.7 hPa | - | - | - | - |
| 1777642693 | 19.44° C | 30% | 1027 hPa | - | - | - | - |
| 1777641768 | 19.44° C | 29% | 1027.2 hPa | - | - | - | - |
| 1777640567 | 18.89° C | 31% | 1027.3 hPa | - | - | - | - |
| 1777639365 | 18.33° C | 31% | 1027.7 hPa | - | - | - | - |
* Rain since midnight (hover to see other rain measurements)
** Current wind speed in m/s (hover to see current wind gust speed)